Startpagina
METAR-TAF:

METAR-TAF

Vliegvelden :

Aeropuerto Internacional Malvinas Argentinas

Ushuaia, Argentinië

breedte: 54-48S, lengte: 068-19W, hoogte: 16 m

Actueel weer

Dit bericht is 36 minuten geleden gemaakt, om 09:00 UTC
Weinig wind
Temperatuur 3°C
Vochtigheid 87%
Druk 1016 hPa
Zicht 10 km of meer
Gebroken wolken op 1800 ft
Gebroken wolken op 4000 ft

METAR: SAWH 200900Z 00000KT 9999 BKN018 BKN040 03/01 Q1016

Tijdstip: 06:36 (09:36 UTC)

Verwachting

Dit bericht is 4 uur en het 36 minuten geleden gemaakt, om 05:00 UTC
Verwachting geldig van 20 om 06 UTC tot 21 om 06 UTC
Wind 3 kt uit variabele richting
Zicht 10 km of meer
geen wolken onder 1500 m en geen cumulonimbus
Wijzigt naar
van 20 om 18 UTC tot 20 om 20 UTC
Wind 10 kt uit het zuiden
Gebroken wolken op 2000 ft
Verspreide wolken op 4000 ft
Tijdelijke
van 21 om 02 UTC tot 21 om 06 UTC
Zicht: 5000 m
regenbuien, sneeuw

TAF: SAWH 200500Z 2006/2106 VRB03KT CAVOK TX18/2019Z TN01/2010Z BECMG 2018/2020 18010KT BKN020 SCT040 TEMPO 2102/2106 5000 SHRASN

Waarnemingen en weersverwachtingen van meer dan 4000 vliegvelden (METAR en TAF).

De beschikbare stations zijn de gele en rode punten op de kaart.

Ga met uw muis naar het station om de naam te zien.

Klik dan om waarnemingen en weersverwachtingen te zien.

kaart wijzigen: klik op de groene knoppen met een zwart kruis om in te zoomen, op de groene knop met een streepje om uit te zoomen of op de groene pijlen voor aangrenzende kaarten.


METAR-TAF: